Time;durP1;ratioP1;P1;durP2;ratioP2;P2;SDS_P1;SDS_P2;PMS_P1;PMS_P2;Temp;Humidity;BMP_temperature;BMP_pressure;BME280_temperature;BME280_humidity;BME280_pressure;Samples;Min_cycle;Max_cycle;Signal;HPM_P1;HPM_P2
2023/09/25 00:00:00;;;;;;;5.35;3.53;;;;;;;11.92;75.87;101222.44;10449285;28;20516;-76
2023/09/25 00:05:07;;;;;;;4.40;3.10;;;;;;;11.84;76.07;101224.81;10449412;28;20073;-76
2023/09/25 00:10:11;;;;;;;4.03;3.15;;;;;;;11.91;75.91;101227.94;10443082;28;20138;-76
2023/09/25 00:15:15;;;;;;;4.65;2.90;;;;;;;11.81;76.05;101218.81;10443258;28;20044;-76
2023/09/25 00:20:20;;;;;;;4.63;2.90;;;;;;;11.73;76.45;101227.44;10449589;28;20055;-75
2023/09/25 00:25:23;;;;;;;3.60;2.95;;;;;;;11.68;76.81;101232.28;10448493;28;20396;-75
2023/09/25 00:30:28;;;;;;;5.15;3.30;;;;;;;11.64;76.95;101228.97;10448830;28;20041;-75
2023/09/25 00:35:31;;;;;;;4.88;3.00;;;;;;;11.65;77.01;101235.19;10430390;28;20040;-76
2023/09/25 00:40:34;;;;;;;8.23;5.25;;;;;;;11.69;76.77;101237.56;10427421;28;20044;-77
2023/09/25 00:45:38;;;;;;;5.15;3.10;;;;;;;11.59;77.01;101228.44;10428517;28;21105;-75
2023/09/25 00:50:42;;;;;;;3.63;3.10;;;;;;;11.54;77.30;101224.34;10428649;28;20067;-76
2023/09/25 00:55:46;;;;;;;3.53;3.22;;;;;;;11.50;77.38;101221.88;10430331;28;20423;-77
2023/09/25 01:00:50;;;;;;;4.13;3.28;;;;;;;11.47;77.69;101226.63;10433580;28;20095;-75
2023/09/25 01:05:53;;;;;;;3.80;3.03;;;;;;;11.34;78.15;101220.41;10437060;28;20449;-76
2023/09/25 01:10:56;;;;;;;5.13;3.28;;;;;;;11.27;78.98;101223.53;10432150;28;20055;-77
2023/09/25 01:16:02;;;;;;;4.18;3.70;;;;;;;11.34;79.02;101220.41;10444624;28;21145;-76
2023/09/25 01:21:06;;;;;;;4.90;3.60;;;;;;;11.37;78.87;101209.44;10448630;28;20598;-76
2023/09/25 01:26:10;;;;;;;4.40;3.47;;;;;;;11.33;78.96;101199.88;10449646;28;20049;-77
2023/09/25 01:31:13;;;;;;;4.10;3.45;;;;;;;11.17;79.62;101203.63;10445435;28;20049;-77
2023/09/25 01:36:16;;;;;;;5.47;3.15;;;;;;;11.33;79.13;101199.88;10440867;28;20051;-76
2023/09/25 01:41:20;;;;;;;6.30;3.30;;;;;;;11.26;78.96;101211.03;10445480;28;20044;-77
2023/09/25 01:46:23;;;;;;;6.22;3.75;;;;;;;11.29;79.13;101204.59;10422148;28;20302;-76
2023/09/25 01:51:27;;;;;;;3.25;2.95;;;;;;;11.17;79.35;101198.25;10437513;28;20770;-76
2023/09/25 01:56:32;;;;;;;5.20;3.53;;;;;;;11.17;79.45;101192.03;10461847;28;20051;-76
2023/09/25 02:01:34;;;;;;;3.45;3.15;;;;;;;11.12;79.72;101196.84;10429078;28;20052;-76
2023/09/25 02:06:37;;;;;;;2.72;2.53;;;;;;;11.14;79.75;101190.41;10430411;28;20186;-75
2023/09/25 02:11:43;;;;;;;3.67;2.92;;;;;;;11.15;79.44;101188.56;10445258;28;20063;-76
2023/09/25 02:16:46;;;;;;;3.78;3.38;;;;;;;11.08;79.82;101184.56;10447962;28;20041;-76
2023/09/25 02:21:49;;;;;;;5.40;3.00;;;;;;;11.16;79.35;101187.59;10443089;28;20083;-76
2023/09/25 02:26:53;;;;;;;2.88;2.67;;;;;;;11.16;79.08;101187.59;10390189;28;1129881;-77
2023/09/25 02:31:57;;;;;;;3.13;2.80;;;;;;;11.08;79.65;101184.56;10448021;28;20044;-76
2023/09/25 02:37:00;;;;;;;4.35;3.08;;;;;;;11.04;79.36;101187.47;10438971;28;20720;-76
2023/09/25 02:42:05;;;;;;;6.18;3.38;;;;;;;11.09;79.33;101183.59;10438859;28;20048;-73
2023/09/25 02:47:08;;;;;;;3.67;3.38;;;;;;;11.00;79.66;101187.81;10433856;28;20061;-77
2023/09/25 02:52:10;;;;;;;4.13;3.13;;;;;;;10.95;80.23;101187.25;10435630;28;20069;-75
2023/09/25 02:57:15;;;;;;;5.35;3.60;;;;;;;11.03;79.84;101192.97;10435702;28;20103;-77
2023/09/25 03:02:18;;;;;;;3.35;2.83;;;;;;;11.04;79.55;101195.53;10425259;28;20037;-77
2023/09/25 03:07:21;;;;;;;4.20;2.78;;;;;;;10.95;79.56;101201.56;10425225;28;20604;-75
2023/09/25 03:12:25;;;;;;;4.60;3.22;;;;;;;10.87;80.34;101200.38;10426558;28;20049;-76
2023/09/25 03:17:28;;;;;;;2.95;2.75;;;;;;;10.88;80.13;101185.97;10440604;28;20078;-77
2023/09/25 03:22:31;;;;;;;3.80;2.80;;;;;;;10.87;80.02;101197.69;10441352;28;20920;-76
2023/09/25 03:27:36;;;;;;;3.53;2.88;;;;;;;10.83;79.96;101197.91;10441390;28;20053;-76
2023/09/25 03:32:40;;;;;;;4.28;3.20;;;;;;;10.77;80.21;101197.44;10422234;28;20094;-76
2023/09/25 03:37:43;;;;;;;6.40;3.20;;;;;;;10.71;80.60;101193.38;10432694;28;20633;-76
2023/09/25 03:42:47;;;;;;;4.05;2.97;;;;;;;10.69;80.58;101200.66;10429785;28;20117;-77
2023/09/25 03:47:50;;;;;;;4.40;3.55;;;;;;;10.66;80.55;101200.03;10434090;28;20098;-76
2023/09/25 03:52:57;;;;;;;3.50;3.20;;;;;;;10.55;81.51;101208.81;10433820;28;20126;-76
2023/09/25 03:58:02;;;;;;;5.18;3.47;;;;;;;10.54;81.52;101209.78;10418296;28;20056;-77
2023/09/25 04:03:05;;;;;;;5.32;3.88;;;;;;;10.60;81.38;101218.28;10430483;28;20048;-77
2023/09/25 04:08:08;;;;;;;5.75;4.20;;;;;;;10.56;81.39;101219.47;10439669;28;20068;-75
2023/09/25 04:13:12;;;;;;;5.50;4.05;;;;;;;10.50;81.50;101227.06;10429015;28;20044;-77
2023/09/25 04:18:15;;;;;;;6.88;3.85;;;;;;;10.38;82.25;101234.13;10435775;28;20049;-76
2023/09/25 04:23:19;;;;;;;5.45;4.15;;;;;;;10.42;82.06;101226.72;10429406;28;20045;-76
2023/09/25 04:28:23;;;;;;;5.70;4.60;;;;;;;10.41;82.29;101225.00;10432205;28;20181;-76
2023/09/25 04:33:26;;;;;;;4.32;3.92;;;;;;;10.35;82.47;101227.13;10439755;28;20050;-77
2023/09/25 04:38:30;;;;;;;6.72;3.70;;;;;;;10.44;82.04;101235.53;10440225;28;20069;-75
2023/09/25 04:43:34;;;;;;;6.30;4.13;;;;;;;10.44;82.20;101230.16;10424180;28;20092;-76
2023/09/25 04:48:37;;;;;;;6.07;3.85;;;;;;;10.38;82.21;101226.94;10435366;28;20060;-76
2023/09/25 04:53:40;;;;;;;4.40;4.00;;;;;;;10.36;82.49;101236.03;10439116;28;20135;-77
2023/09/25 04:58:44;;;;;;;5.75;4.20;;;;;;;10.30;82.97;101231.09;10446764;28;20092;-75
2023/09/25 05:03:47;;;;;;;4.80;4.40;;;;;;;10.33;82.80;101229.06;10442054;28;20044;-77
2023/09/25 05:08:50;;;;;;;4.43;4.03;;;;;;;10.39;82.43;101238.53;10443393;28;20049;-76
2023/09/25 05:13:55;;;;;;;4.75;4.18;;;;;;;10.43;82.34;101237.38;10443210;28;20052;-76
2023/09/25 05:18:59;;;;;;;5.22;4.50;;;;;;;10.43;82.17;101228.47;10439273;28;20044;-75
2023/09/25 05:24:02;;;;;;;5.85;4.38;;;;;;;10.41;82.34;101236.59;10435365;28;20040;-76
2023/09/25 05:29:06;;;;;;;4.57;4.18;;;;;;;10.41;82.78;101230.38;10480796;28;20044;-77
2023/09/25 05:34:09;;;;;;;4.75;4.15;;;;;;;10.42;82.73;101224.88;10456124;28;20093;-75
2023/09/25 05:39:12;;;;;;;6.97;4.38;;;;;;;10.66;81.92;101230.44;10443401;28;20044;-76
2023/09/25 05:44:17;;;;;;;8.02;4.97;;;;;;;10.70;81.42;101236.47;10442944;28;20140;-76
2023/09/25 05:49:19;;;;;;;5.07;4.57;;;;;;;10.80;81.24;101224.97;10449565;28;20054;-73
2023/09/25 05:54:22;;;;;;;4.65;4.25;;;;;;;10.92;80.79;101231.34;10444056;28;20404;-76
2023/09/25 05:59:28;;;;;;;7.05;4.60;;;;;;;11.09;80.15;101249.00;10445230;28;20056;-76
2023/09/25 06:04:30;;;;;;;4.85;4.30;;;;;;;11.14;79.95;101246.88;10454723;28;20044;-76
2023/09/25 06:09:35;;;;;;;4.38;3.97;;;;;;;11.24;79.75;101234.53;10447348;28;20416;-75
2023/09/25 06:14:39;;;;;;;4.70;3.88;;;;;;;11.56;78.55;101225.97;10452074;28;20045;-77
2023/09/25 06:19:42;;;;;;;5.68;3.95;;;;;;;11.85;77.71;101231.09;10450282;28;20041;-77
2023/09/25 06:24:45;;;;;;;4.50;3.22;;;;;;;12.28;77.03;101228.78;10446473;28;20051;-76
2023/09/25 06:29:49;;;;;;;6.57;2.83;;;;;;;12.67;73.96;101234.84;10447434;28;20053;-76
2023/09/25 06:34:52;;;;;;;4.38;2.85;;;;;;;13.03;73.63;101228.44;10442754;28;20139;-76
2023/09/25 06:39:55;;;;;;;3.05;2.75;;;;;;;13.44;71.03;101235.13;10449315;28;20055;-76
2023/09/25 06:45:00;;;;;;;3.10;2.70;;;;;;;13.53;70.60;101243.47;10426214;28;20202;-77
2023/09/25 06:50:03;;;;;;;3.25;2.47;;;;;;;13.60;70.50;101236.59;10441570;28;20127;-77
2023/09/25 06:55:07;;;;;;;4.05;2.83;;;;;;;13.56;70.56;101240.53;10466126;28;20087;-77
2023/09/25 07:00:13;;;;;;;4.30;2.78;;;;;;;13.96;70.05;101231.88;10479256;28;20051;-77
2023/09/25 07:05:17;;;;;;;6.15;3.05;;;;;;;14.48;68.67;101236.56;10478015;28;20047;-78
2023/09/25 07:10:20;;;;;;;3.85;2.78;;;;;;;14.90;65.82;101243.84;10477221;28;20508;-77
2023/09/25 07:15:24;;;;;;;3.20;2.58;;;;;;;15.13;66.04;101242.72;10481547;28;20507;-76
2023/09/25 07:20:27;;;;;;;5.43;2.83;;;;;;;15.34;65.49;101245.44;10456528;28;20685;-76
2023/09/25 07:25:30;;;;;;;3.00;2.70;;;;;;;15.32;65.24;101250.06;10466115;28;20604;-77
2023/09/25 07:30:34;;;;;;;2.10;1.92;;;;;;;15.36;65.94;101262.41;10456494;28;20079;-77
2023/09/25 07:35:37;;;;;;;5.47;3.05;;;;;;;15.45;65.39;101263.44;10454344;28;20082;-75
2023/09/25 07:40:41;;;;;;;3.90;2.40;;;;;;;15.99;64.19;101264.06;10460324;28;20056;-77
2023/09/25 07:45:59;;;;;;;4.55;2.42;;;;;;;16.06;63.81;101248.97;10478237;28;20047;-77
2023/09/25 07:51:02;;;;;;;2.78;2.55;;;;;;;15.91;64.83;101246.66;10463644;28;20170;-77
2023/09/25 07:56:05;;;;;;;4.60;2.65;;;;;;;16.62;63.29;101253.78;10456317;28;20036;-77
2023/09/25 08:01:12;;;;;;;3.55;2.50;;;;;;;16.59;62.35;101252.22;10456695;28;20071;-76
2023/09/25 08:06:15;;;;;;;3.72;2.55;;;;;;;17.01;62.45;101253.75;10436257;28;20052;-77
2023/09/25 08:11:18;;;;;;;2.92;2.35;;;;;;;17.91;58.96;101255.03;10454007;28;20048;-77
2023/09/25 08:16:23;;;;;;;3.47;1.77;;;;;;;18.04;58.30;101255.53;10434714;28;20514;-77
2023/09/25 08:21:26;;;;;;;3.15;1.75;;;;;;;17.82;56.60;101254.06;10466719;28;20119;-77
2023/09/25 08:26:30;;;;;;;2.47;2.28;;;;;;;17.06;57.61;101253.28;10480776;28;20304;-77
2023/09/25 08:31:34;;;;;;;2.10;1.90;;;;;;;17.17;57.76;101247.75;10480007;28;20072;-77
2023/09/25 08:36:37;;;;;;;2.33;2.13;;;;;;;17.32;57.76;101243.53;10453933;28;20525;-76
2023/09/25 08:41:41;;;;;;;1.95;1.75;;;;;;;17.39;56.72;101251.97;10447459;28;20045;-77
2023/09/25 08:46:46;;;;;;;1.60;1.50;;;;;;;18.04;55.28;101247.38;10439093;28;20495;-77
2023/09/25 08:51:49;;;;;;;3.63;2.58;;;;;;;18.26;55.20;101246.09;10447624;28;20480;-77
2023/09/25 08:56:52;;;;;;;2.28;1.90;;;;;;;18.48;54.54;101242.06;10450373;28;20420;-76
2023/09/25 09:01:57;;;;;;;3.22;1.75;;;;;;;18.54;53.53;101241.47;10423665;28;20057;-77
2023/09/25 09:07:00;;;;;;;1.98;1.50;;;;;;;18.56;52.16;101241.28;10449318;28;20072;-77
2023/09/25 09:12:03;;;;;;;3.42;1.63;;;;;;;19.30;51.53;101248.19;10451578;28;20051;-77
2023/09/25 09:17:09;;;;;;;1.77;1.67;;;;;;;19.84;49.31;101231.63;10444728;28;20050;-77
2023/09/25 09:22:13;;;;;;;2.17;1.70;;;;;;;19.79;49.42;101242.19;10433744;28;20056;-77
2023/09/25 09:27:20;;;;;;;4.07;2.08;;;;;;;19.74;49.91;101233.63;10435111;28;20059;-77
2023/09/25 09:32:27;;;;;;;2.08;1.70;;;;;;;20.06;50.21;101225.56;10451344;28;20045;-77
2023/09/25 09:37:32;;;;;;;2.70;1.60;;;;;;;20.31;48.88;101225.66;10456930;28;20128;-76
2023/09/25 09:42:35;;;;;;;6.25;1.80;;;;;;;20.71;47.68;101218.53;10460317;28;21581;-77
2023/09/25 09:47:44;;;;;;;1.42;1.33;;;;;;;20.49;48.26;101209.16;10450470;28;20511;-77
2023/09/25 09:52:47;;;;;;;2.03;1.35;;;;;;;20.81;47.56;101201.97;10454687;28;20503;-77
2023/09/25 09:57:51;;;;;;;1.27;1.15;;;;;;;21.30;46.15;101204.63;10455242;28;20063;-77
2023/09/25 10:02:56;;;;;;;1.10;1.10;;;;;;;21.68;44.18;101200.22;10459909;28;20127;-77
2023/09/25 10:08:09;;;;;;;1.55;1.10;;;;;;;21.62;42.59;101201.78;10454430;28;21313;-76
2023/09/25 10:13:21;;;;;;;1.77;1.15;;;;;;;21.74;41.53;101191.31;10455011;28;20443;-77
2023/09/25 10:18:26;;;;;;;1.43;1.00;;;;;;;21.68;42.00;101192.03;10455391;28;20045;-77
2023/09/25 10:23:30;;;;;;;2.15;1.13;;;;;;;22.40;41.08;101182.72;10455088;28;20118;-76
2023/09/25 10:28:34;;;;;;;3.63;1.50;;;;;;;22.20;39.66;101183.22;10454341;28;20048;-77
2023/09/25 10:33:39;;;;;;;1.67;1.08;;;;;;;21.37;41.71;101195.56;10451878;28;20076;-76
2023/09/25 10:38:43;;;;;;;2.08;1.23;;;;;;;20.87;41.85;101185.75;10472598;28;20037;-77
2023/09/25 10:43:46;;;;;;;2.25;0.95;;;;;;;20.66;41.97;101177.25;10461517;28;20055;-77
2023/09/25 10:48:50;;;;;;;1.42;1.33;;;;;;;21.37;40.79;101176.44;10447289;28;20051;-76
2023/09/25 10:53:53;;;;;;;2.22;1.20;;;;;;;22.50;40.13;101170.53;10446944;28;20075;-77
2023/09/25 10:58:56;;;;;;;1.45;1.10;;;;;;;23.11;37.59;101164.97;10449294;28;20059;-77
2023/09/25 11:04:02;;;;;;;1.83;1.27;;;;;;;23.45;37.94;101155.34;10457217;28;20207;-77
2023/09/25 11:09:11;;;;;;;2.20;1.10;;;;;;;23.56;36.39;101154.00;10450624;28;20049;-77
2023/09/25 11:14:14;;;;;;;2.47;1.10;;;;;;;23.65;36.78;101144.63;10442692;28;21399;-77
2023/09/25 11:19:19;;;;;;;1.48;1.38;;;;;;;24.24;36.52;101138.94;10446387;28;20060;-77
2023/09/25 11:24:21;;;;;;;2.97;1.70;;;;;;;24.12;36.38;101129.56;10449974;28;20041;-77
2023/09/25 11:29:30;;;;;;;2.88;1.27;;;;;;;24.00;37.36;101131.13;10444536;28;20056;-76
2023/09/25 11:34:39;;;;;;;1.80;1.10;;;;;;;23.56;37.16;101130.19;10442887;28;20052;-77
2023/09/25 11:39:42;;;;;;;1.92;1.40;;;;;;;23.44;37.21;101127.06;10443351;28;20044;-77
2023/09/25 11:44:45;;;;;;;2.20;1.40;;;;;;;23.97;37.11;101123.25;10442373;28;20370;-77
2023/09/25 11:49:49;;;;;;;3.58;1.48;;;;;;;24.46;37.19;101114.25;10429482;28;20060;-77
2023/09/25 11:54:53;;;;;;;1.73;1.25;;;;;;;25.00;36.00;101110.84;10451489;28;20797;-77
2023/09/25 11:59:56;;;;;;;2.65;1.50;;;;;;;24.70;36.59;101112.97;10444109;28;20446;-77
2023/09/25 12:05:00;;;;;;;2.08;1.50;;;;;;;24.53;36.58;101110.53;10446409;28;20048;-76
2023/09/25 12:10:05;;;;;;;1.75;1.30;;;;;;;25.02;36.59;101118.91;10449639;28;20049;-77
2023/09/25 12:15:09;;;;;;;2.65;1.40;;;;;;;24.04;37.27;101103.09;10446964;28;20142;-77
2023/09/25 12:20:14;;;;;;;1.77;1.20;;;;;;;23.97;37.45;101104.06;10450193;28;20625;-76
2023/09/25 12:25:17;;;;;;;2.35;1.40;;;;;;;23.93;36.47;101105.50;10434601;28;20575;-77
2023/09/25 12:30:20;;;;;;;3.13;1.35;;;;;;;24.34;37.86;101107.59;10445020;28;20036;-77
2023/09/25 12:35:25;;;;;;;3.15;1.20;;;;;;;23.23;37.74;101105.09;10449660;28;20809;-77
2023/09/25 12:40:29;;;;;;;1.65;1.30;;;;;;;23.10;38.97;101110.34;10449146;28;20789;-77
2023/09/25 12:45:32;;;;;;;2.95;1.70;;;;;;;24.15;38.28;101111.84;10449088;28;20067;-77
2023/09/25 12:50:37;;;;;;;3.83;1.50;;;;;;;23.80;38.46;101130.91;10462511;28;20076;-77
2023/09/25 12:55:40;;;;;;;3.88;1.65;;;;;;;22.67;39.63;101129.31;10447658;28;20045;-77
2023/09/25 13:00:42;;;;;;;2.33;1.48;;;;;;;22.73;39.08;101132.13;10443738;28;20055;-77
2023/09/25 13:05:47;;;;;;;1.83;1.52;;;;;;;25.72;36.02;101114.19;10447433;28;20083;-77
2023/09/25 13:10:51;;;;;;;2.53;1.15;;;;;;;26.51;33.47;101107.97;10453530;28;20072;-77
2023/09/25 13:15:54;;;;;;;2.22;1.42;;;;;;;25.59;34.86;101101.22;10453069;28;21032;-77
2023/09/25 13:20:59;;;;;;;2.20;1.27;;;;;;;25.88;35.75;101090.94;10442699;28;20052;-77
2023/09/25 13:26:03;;;;;;;1.80;1.27;;;;;;;27.25;33.66;101089.38;10452084;28;20052;-76
2023/09/25 13:31:06;;;;;;;1.80;1.40;;;;;;;27.01;33.08;101090.94;10453414;28;20049;-77
2023/09/25 13:36:10;;;;;;;2.35;1.38;;;;;;;27.70;32.32;101089.41;10449492;28;20052;-77
2023/09/25 13:41:13;;;;;;;2.90;1.48;;;;;;;27.71;32.18;101080.06;10438640;28;20052;-77
2023/09/25 13:46:16;;;;;;;1.88;1.50;;;;;;;26.97;33.17;101090.53;10448111;28;20526;-77
2023/09/25 13:51:20;;;;;;;2.40;1.50;;;;;;;27.21;33.80;101091.75;10479827;28;20049;-77
2023/09/25 13:56:23;;;;;;;5.15;1.88;;;;;;;27.55;32.82;101086.94;10479848;28;20045;-76
2023/09/25 14:01:26;;;;;;;1.80;1.50;;;;;;;28.43;32.55;101086.97;10469438;28;20124;-76
2023/09/25 14:06:30;;;;;;;1.25;1.15;;;;;;;28.85;31.94;101078.97;10451110;28;20052;-76
2023/09/25 14:11:33;;;;;;;3.03;1.70;;;;;;;28.44;30.46;101080.41;10437107;28;20060;-76
2023/09/25 14:16:37;;;;;;;2.85;1.67;;;;;;;28.05;31.61;101079.63;10417041;28;20045;-76
2023/09/25 14:21:41;;;;;;;2.13;1.40;;;;;;;25.72;33.96;101081.16;10436799;28;21181;-75
2023/09/25 14:26:44;;;;;;;4.25;1.40;;;;;;;24.67;36.58;101074.91;10460657;28;20134;-76
2023/09/25 14:31:47;;;;;;;3.58;1.65;;;;;;;24.52;37.03;101088.78;10467571;28;20048;-76
2023/09/25 14:36:52;;;;;;;2.00;1.30;;;;;;;24.47;36.76;101088.50;10464596;28;20048;-76
2023/09/25 14:41:55;;;;;;;2.67;1.58;;;;;;;24.28;36.39;101084.53;10472176;28;20047;-76
2023/09/25 14:46:58;;;;;;;2.55;1.88;;;;;;;24.44;36.15;101091.66;10468143;28;20044;-76
2023/09/25 14:52:05;;;;;;;1.98;1.25;;;;;;;24.37;37.26;101088.81;10470915;28;20048;-76
2023/09/25 14:57:08;;;;;;;1.55;1.35;;;;;;;23.98;36.70;101095.66;10455707;28;20502;-76
2023/09/25 15:02:11;;;;;;;1.92;1.50;;;;;;;23.80;37.38;101093.34;10447810;28;20052;-76
2023/09/25 15:07:15;;;;;;;1.80;1.50;;;;;;;24.31;36.90;101090.47;10444905;28;20885;-76
2023/09/25 15:12:20;;;;;;;2.35;1.40;;;;;;;24.20;36.43;101093.75;10426062;28;20071;-76
2023/09/25 15:17:23;;;;;;;2.55;1.58;;;;;;;23.90;36.87;101094.94;10440371;28;22511;-77
2023/09/25 15:22:28;;;;;;;2.70;1.35;;;;;;;24.43;36.36;101087.19;10424974;28;20044;-77
2023/09/25 15:27:31;;;;;;;4.85;1.70;;;;;;;23.98;37.41;101090.16;10436382;28;20075;-77
2023/09/25 15:32:34;;;;;;;1.90;1.45;;;;;;;23.56;38.55;101086.31;10444020;28;20048;-77
2023/09/25 15:37:39;;;;;;;2.30;1.77;;;;;;;23.28;39.61;101080.69;10446231;28;20049;-76
2023/09/25 15:42:41;;;;;;;4.22;1.55;;;;;;;22.98;39.58;101079.81;10442259;28;20056;-77
2023/09/25 15:47:44;;;;;;;1.40;1.30;;;;;;;22.46;40.63;101078.00;10454281;28;20097;-77
2023/09/25 15:52:50;;;;;;;1.75;1.40;;;;;;;22.11;41.23;101074.88;10438658;28;20044;-76
2023/09/25 15:57:53;;;;;;;2.03;1.52;;;;;;;21.92;42.15;101076.22;10441778;28;20052;-77
2023/09/25 16:02:56;;;;;;;1.45;1.33;;;;;;;22.07;42.14;101084.47;10445580;28;20140;-77
2023/09/25 16:08:00;;;;;;;1.95;1.60;;;;;;;21.91;48.40;101084.59;10455342;28;20773;-76
2023/09/25 16:13:03;;;;;;;2.08;1.77;;;;;;;21.23;51.13;101079.66;10450003;28;20088;-76
2023/09/25 16:18:07;;;;;;;2.80;1.83;;;;;;;21.04;49.62;101076.53;10467203;28;20083;-76
2023/09/25 16:23:11;;;;;;;2.28;1.80;;;;;;;21.77;44.76;101078.88;10464022;28;20041;-76
2023/09/25 16:28:14;;;;;;;2.33;1.85;;;;;;;22.34;43.71;101089.34;10468139;28;20538;-76
2023/09/25 16:33:16;;;;;;;3.10;1.65;;;;;;;22.36;42.90;101078.25;10467422;28;20051;-77
2023/09/25 16:38:21;;;;;;;3.72;2.30;;;;;;;22.08;43.42;101080.72;10462447;28;20045;-76
2023/09/25 16:43:23;;;;;;;3.78;2.47;;;;;;;21.77;44.06;101076.13;10436692;28;20299;-76
2023/09/25 16:48:27;;;;;;;7.18;1.98;;;;;;;21.42;45.15;101072.91;10445950;28;20046;-78
2023/09/25 16:53:31;;;;;;;2.97;1.85;;;;;;;21.19;46.02;101077.47;10459444;28;20064;-77
2023/09/25 16:58:34;;;;;;;3.25;1.65;;;;;;;20.86;46.76;101076.69;10468374;28;20056;-76
2023/09/25 17:03:37;;;;;;;4.15;2.05;;;;;;;20.39;47.81;101074.75;10469042;28;20040;-76
2023/09/25 17:08:42;;;;;;;5.32;1.80;;;;;;;19.95;48.60;101078.66;10460827;28;20062;-76
2023/09/25 17:13:45;;;;;;;2.22;1.90;;;;;;;19.59;49.52;101086.25;10454650;28;20592;-76
2023/09/25 17:18:47;;;;;;;6.60;1.83;;;;;;;19.39;50.16;101093.81;10445568;28;20052;-76
2023/09/25 17:23:52;;;;;;;4.45;2.08;;;;;;;19.12;50.69;101101.22;10434484;28;20051;-76
2023/09/25 17:28:55;;;;;;;7.43;2.08;;;;;;;18.90;51.73;101093.63;10447145;28;20652;-76
2023/09/25 17:33:57;;;;;;;3.63;2.10;;;;;;;18.67;52.21;101095.97;10462547;28;20063;-76
2023/09/25 17:39:02;;;;;;;2.97;2.13;;;;;;;18.60;52.58;101089.50;10456329;28;20049;-77
2023/09/25 17:44:05;;;;;;;3.85;2.17;;;;;;;18.41;55.29;101099.56;10449421;28;20048;-77
2023/09/25 17:49:08;;;;;;;3.15;2.30;;;;;;;18.19;57.40;101097.34;10446160;28;20037;-75
2023/09/25 17:54:12;;;;;;;3.03;1.95;;;;;;;18.02;57.80;101099.03;10464167;28;20407;-76
2023/09/25 17:59:15;;;;;;;5.22;2.00;;;;;;;17.96;57.51;101097.75;10460868;28;20056;-76
2023/09/25 18:04:18;;;;;;;7.75;2.95;;;;;;;17.80;56.78;101098.47;10456862;28;20060;-76
2023/09/25 18:09:22;;;;;;;3.92;2.58;;;;;;;17.74;57.18;101100.94;10453164;28;20524;-76
2023/09/25 18:14:25;;;;;;;3.05;2.22;;;;;;;17.65;58.02;101098.13;10445536;28;20048;-78
2023/09/25 18:19:28;;;;;;;3.05;2.53;;;;;;;17.54;58.30;101102.94;10455967;28;20041;-77
2023/09/25 18:24:32;;;;;;;3.40;1.98;;;;;;;17.40;58.85;101107.88;10450709;28;20404;-77
2023/09/25 18:29:36;;;;;;;5.20;2.08;;;;;;;17.28;58.85;101103.69;10470804;28;20045;-78
2023/09/25 18:34:41;;;;;;;2.83;2.33;;;;;;;17.11;59.52;101109.84;10475142;28;20060;-77
2023/09/25 18:39:45;;;;;;;3.83;1.90;;;;;;;16.96;60.40;101107.63;10474227;28;20067;-78
2023/09/25 18:44:48;;;;;;;7.60;2.40;;;;;;;16.97;60.45;101122.03;10461402;28;20059;-77
2023/09/25 18:49:51;;;;;;;3.13;2.40;;;;;;;16.94;60.77;101122.34;10447463;28;20084;-78
2023/09/25 18:54:56;;;;;;;4.30;2.58;;;;;;;16.79;61.09;101119.25;10446327;28;20064;-78
2023/09/25 18:59:59;;;;;;;3.30;2.60;;;;;;;16.70;61.98;101128.25;10461592;28;20063;-76
2023/09/25 19:05:02;;;;;;;4.22;2.67;;;;;;;16.65;62.01;101123.28;10480749;28;20495;-78
2023/09/25 19:10:08;;;;;;;4.00;2.88;;;;;;;16.68;62.41;101117.56;10483280;28;20064;-78
2023/09/25 19:15:11;;;;;;;6.60;3.22;;;;;;;16.54;63.21;101118.88;10494583;28;20514;-78
2023/09/25 19:20:14;;;;;;;5.43;3.28;;;;;;;16.42;63.65;101122.75;10478490;28;20052;-78
2023/09/25 19:25:19;;;;;;;4.57;3.00;;;;;;;16.31;64.38;101125.63;10477860;28;20045;-77
2023/09/25 19:30:21;;;;;;;9.88;7.03;;;;;;;16.24;64.75;101124.47;10470244;28;20399;-77
2023/09/25 19:35:24;;;;;;;15.10;9.52;;;;;;;16.09;65.66;101127.59;10484419;28;20048;-79
2023/09/25 19:40:28;;;;;;;7.38;5.85;;;;;;;15.99;66.49;101136.69;10481987;28;20664;-77
2023/09/25 19:45:31;;;;;;;5.40;3.80;;;;;;;15.89;67.35;101147.53;10479065;28;20162;-77
2023/09/25 19:50:34;;;;;;;6.35;3.80;;;;;;;15.91;67.61;101145.56;10474228;28;20056;-77
2023/09/25 19:55:39;;;;;;;6.28;4.90;;;;;;;15.85;67.98;101141.56;10480801;28;20045;-76
2023/09/25 20:00:41;;;;;;;5.28;4.28;;;;;;;15.80;68.05;101142.97;10475572;28;20044;-78
2023/09/25 20:05:44;;;;;;;9.65;5.57;;;;;;;15.69;68.75;101138.53;10474101;28;20118;-77
2023/09/25 20:10:49;;;;;;;8.57;5.68;;;;;;;15.55;69.44;101149.75;10471269;28;20052;-76
2023/09/25 20:15:53;;;;;;;5.65;4.80;;;;;;;15.48;69.90;101146.75;10479454;28;20708;-77
2023/09/25 20:20:58;;;;;;;7.45;4.55;;;;;;;15.36;70.12;101155.94;10454879;28;20044;-77
2023/09/25 20:26:06;;;;;;;7.05;4.05;;;;;;;15.26;70.90;101159.44;10453379;28;20487;-78
2023/09/25 20:31:09;;;;;;;5.00;4.50;;;;;;;15.08;71.47;101152.94;10457007;28;21909;-78
2023/09/25 20:36:12;;;;;;;5.38;3.92;;;;;;;15.02;71.74;101150.78;10453185;28;20051;-78
2023/09/25 20:41:16;;;;;;;6.60;4.35;;;;;;;14.94;71.39;101153.31;10458162;28;20044;-78
2023/09/25 20:46:19;;;;;;;7.00;4.65;;;;;;;14.86;71.89;101147.72;10446594;28;20408;-77
2023/09/25 20:51:22;;;;;;;5.00;4.57;;;;;;;14.79;71.89;101148.25;10452251;28;20063;-76
2023/09/25 20:56:26;;;;;;;7.15;4.55;;;;;;;14.78;72.00;101159.19;10448097;28;20049;-77
2023/09/25 21:01:29;;;;;;;6.97;4.57;;;;;;;14.66;72.53;101155.72;10444135;28;20049;-76
2023/09/25 21:06:32;;;;;;;6.88;4.50;;;;;;;14.56;72.81;101157.47;10445946;28;20055;-78
2023/09/25 21:11:36;;;;;;;8.35;4.53;;;;;;;14.45;73.25;101153.00;10424954;28;20071;-77
2023/09/25 21:16:39;;;;;;;6.25;4.28;;;;;;;14.38;73.89;101159.91;10437457;28;20497;-77
2023/09/25 21:21:43;;;;;;;6.03;4.07;;;;;;;14.35;74.09;101155.59;10468705;28;20110;-77
2023/09/25 21:26:49;;;;;;;6.35;4.97;;;;;;;14.25;74.49;101148.41;10455853;28;20112;-78
2023/09/25 21:31:51;;;;;;;5.65;4.28;;;;;;;14.14;74.92;101147.47;10422931;28;20454;-78
2023/09/25 21:36:54;;;;;;;7.43;5.30;;;;;;;14.07;75.04;101150.78;10456616;28;20072;-76
2023/09/25 21:41:59;;;;;;;6.25;5.30;;;;;;;14.03;75.26;101161.00;10465217;28;20163;-78
2023/09/25 21:47:01;;;;;;;6.97;4.88;;;;;;;13.97;75.08;101142.63;10461316;28;20056;-76
2023/09/25 21:52:05;;;;;;;5.25;4.75;;;;;;;13.87;75.44;101147.91;10469094;28;20055;-77
2023/09/25 21:57:09;;;;;;;5.65;4.93;;;;;;;13.74;75.82;101133.75;10458323;28;20116;-77
2023/09/25 22:02:12;;;;;;;7.18;4.95;;;;;;;13.78;75.94;101143.28;10459587;28;20056;-78
2023/09/25 22:07:15;;;;;;;5.90;4.93;;;;;;;13.77;75.79;101132.59;10464356;28;20048;-78
2023/09/25 22:12:20;;;;;;;6.38;4.70;;;;;;;13.77;75.72;101135.31;10458279;28;20045;-79
2023/09/25 22:17:22;;;;;;;4.90;4.40;;;;;;;13.78;75.36;101142.44;10453602;27;20044;-78
2023/09/25 22:22:25;;;;;;;5.35;4.65;;;;;;;13.77;75.13;101130.78;10454419;28;20079;-78
2023/09/25 22:27:29;;;;;;;5.30;4.70;;;;;;;13.76;74.70;101134.44;10461217;28;20105;-78
2023/09/25 22:32:33;;;;;;;7.57;5.18;;;;;;;13.71;74.91;101126.75;10458747;28;20044;-77
2023/09/25 22:37:36;;;;;;;6.80;4.80;;;;;;;13.60;74.99;101129.50;10459648;28;20182;-77
2023/09/25 22:42:41;;;;;;;5.88;4.70;;;;;;;13.53;74.99;101130.97;10456260;28;20474;-78
2023/09/25 22:47:44;;;;;;;6.82;4.25;;;;;;;13.44;75.22;101127.19;10461470;28;20146;-78
2023/09/25 22:52:47;;;;;;;5.15;4.65;;;;;;;13.40;75.38;101136.50;10437025;28;20049;-78
2023/09/25 22:57:51;;;;;;;6.03;4.28;;;;;;;13.37;75.17;101125.09;10454072;28;20056;-77
2023/09/25 23:02:56;;;;;;;4.63;3.95;;;;;;;13.25;75.23;101130.47;10452987;28;20040;-78
2023/09/25 23:07:59;;;;;;;7.60;4.47;;;;;;;13.07;75.83;101131.09;10459226;28;20075;-78
2023/09/25 23:13:04;;;;;;;6.63;4.78;;;;;;;13.01;75.86;101127.91;10454752;28;20048;-78